Terminal Aerodrome Forecast
Issued by NWS

Home | Current Version | Previous Version | Text Only | Print | Product List | Glossary On
Versions: 1 2 3 4 5 6 7 8 9 10 11 12 13
000
FTUS46 KSEW 300500
TAFPAE
TAF
KPAE 300520Z 3006/3106 02006KT P6SM SKC
      TEMPO 3011/3015 2SM BR SCT002
     FM302000 32008KT P6SM SKC=

USA.gov is the U.S. government's official web portal to all federal, state and local government web resources and services.